sensor_id;sensor_type;location;lat;lon;timestamp;P1;durP1;ratioP1;P2;durP2;ratioP2
9438;SDS011;5176;42.622;25.386;2022-11-13T00:01:11;24.17;;;17.73;;
9438;SDS011;5176;42.622;25.386;2022-11-13T00:03:41;26.50;;;20.67;;
9438;SDS011;5176;42.622;25.386;2022-11-13T00:06:10;26.83;;;21.50;;
9438;SDS011;5176;42.622;25.386;2022-11-13T00:08:38;29.87;;;22.97;;
9438;SDS011;5176;42.622;25.386;2022-11-13T00:11:05;28.77;;;23.97;;
9438;SDS011;5176;42.622;25.386;2022-11-13T00:13:34;26.20;;;21.43;;
9438;SDS011;5176;42.622;25.386;2022-11-13T00:16:02;26.50;;;22.57;;
9438;SDS011;5176;42.622;25.386;2022-11-13T00:18:32;27.33;;;20.83;;
9438;SDS011;5176;42.622;25.386;2022-11-13T00:21:03;24.63;;;20.07;;
9438;SDS011;5176;42.622;25.386;2022-11-13T00:23:33;20.03;;;17.37;;
9438;SDS011;5176;42.622;25.386;2022-11-13T00:26:04;19.87;;;16.87;;
9438;SDS011;5176;42.622;25.386;2022-11-13T00:28:32;18.13;;;15.70;;
9438;SDS011;5176;42.622;25.386;2022-11-13T00:30:59;19.23;;;17.13;;
9438;SDS011;5176;42.622;25.386;2022-11-13T00:33:28;17.87;;;14.80;;
9438;SDS011;5176;42.622;25.386;2022-11-13T00:36:01;15.83;;;13.30;;
9438;SDS011;5176;42.622;25.386;2022-11-13T00:38:28;16.10;;;12.40;;
9438;SDS011;5176;42.622;25.386;2022-11-13T00:40:57;14.50;;;12.30;;
9438;SDS011;5176;42.622;25.386;2022-11-13T00:43:24;13.80;;;12.37;;
9438;SDS011;5176;42.622;25.386;2022-11-13T00:45:52;14.60;;;11.93;;
9438;SDS011;5176;42.622;25.386;2022-11-13T00:48:19;13.40;;;12.00;;
9438;SDS011;5176;42.622;25.386;2022-11-13T00:50:46;14.43;;;12.03;;
9438;SDS011;5176;42.622;25.386;2022-11-13T00:53:14;14.80;;;12.03;;
9438;SDS011;5176;42.622;25.386;2022-11-13T00:55:41;14.07;;;12.60;;
9438;SDS011;5176;42.622;25.386;2022-11-13T00:58:10;13.67;;;12.27;;
9438;SDS011;5176;42.622;25.386;2022-11-13T01:00:38;16.37;;;12.77;;
9438;SDS011;5176;42.622;25.386;2022-11-13T01:03:05;16.57;;;13.20;;
9438;SDS011;5176;42.622;25.386;2022-11-13T01:05:34;16.93;;;13.93;;
9438;SDS011;5176;42.622;25.386;2022-11-13T01:08:02;15.17;;;13.37;;
9438;SDS011;5176;42.622;25.386;2022-11-13T01:10:29;16.20;;;13.60;;
9438;SDS011;5176;42.622;25.386;2022-11-13T01:12:56;15.20;;;11.87;;
9438;SDS011;5176;42.622;25.386;2022-11-13T01:15:25;16.67;;;13.23;;
9438;SDS011;5176;42.622;25.386;2022-11-13T01:17:52;17.37;;;13.50;;
9438;SDS011;5176;42.622;25.386;2022-11-13T01:20:20;14.67;;;13.07;;
9438;SDS011;5176;42.622;25.386;2022-11-13T01:22:48;17.23;;;12.97;;
9438;SDS011;5176;42.622;25.386;2022-11-13T01:25:15;18.70;;;15.43;;
9438;SDS011;5176;42.622;25.386;2022-11-13T01:27:43;18.03;;;15.83;;
9438;SDS011;5176;42.622;25.386;2022-11-13T01:30:10;17.20;;;15.10;;
9438;SDS011;5176;42.622;25.386;2022-11-13T01:32:39;17.07;;;14.97;;
9438;SDS011;5176;42.622;25.386;2022-11-13T01:35:06;19.53;;;15.23;;
9438;SDS011;5176;42.622;25.386;2022-11-13T01:37:33;18.13;;;15.50;;
9438;SDS011;5176;42.622;25.386;2022-11-13T01:40:00;19.37;;;15.47;;
9438;SDS011;5176;42.622;25.386;2022-11-13T01:42:27;17.03;;;14.30;;
9438;SDS011;5176;42.622;25.386;2022-11-13T01:44:55;18.77;;;14.30;;
9438;SDS011;5176;42.622;25.386;2022-11-13T01:47:25;17.63;;;13.17;;
9438;SDS011;5176;42.622;25.386;2022-11-13T01:49:55;16.40;;;13.20;;
9438;SDS011;5176;42.622;25.386;2022-11-13T01:52:26;15.00;;;12.67;;
9438;SDS011;5176;42.622;25.386;2022-11-13T01:54:58;13.83;;;11.90;;
9438;SDS011;5176;42.622;25.386;2022-11-13T01:57:28;12.63;;;11.30;;
9438;SDS011;5176;42.622;25.386;2022-11-13T01:59:56;13.67;;;11.67;;
9438;SDS011;5176;42.622;25.386;2022-11-13T02:02:26;15.80;;;12.70;;
9438;SDS011;5176;42.622;25.386;2022-11-13T02:04:55;15.93;;;12.93;;
9438;SDS011;5176;42.622;25.386;2022-11-13T02:07:22;14.17;;;12.67;;
9438;SDS011;5176;42.622;25.386;2022-11-13T02:09:51;18.40;;;14.53;;
9438;SDS011;5176;42.622;25.386;2022-11-13T02:12:20;18.77;;;14.37;;
9438;SDS011;5176;42.622;25.386;2022-11-13T02:14:53;19.53;;;15.20;;
9438;SDS011;5176;42.622;25.386;2022-11-13T02:17:22;20.60;;;16.50;;
9438;SDS011;5176;42.622;25.386;2022-11-13T02:19:56;16.87;;;15.07;;
9438;SDS011;5176;42.622;25.386;2022-11-13T02:22:28;22.50;;;16.93;;
9438;SDS011;5176;42.622;25.386;2022-11-13T02:25:02;22.10;;;17.10;;
9438;SDS011;5176;42.622;25.386;2022-11-13T02:27:33;19.70;;;15.53;;
9438;SDS011;5176;42.622;25.386;2022-11-13T02:30:10;19.47;;;15.10;;
9438;SDS011;5176;42.622;25.386;2022-11-13T02:32:41;18.33;;;14.10;;
9438;SDS011;5176;42.622;25.386;2022-11-13T02:35:09;23.43;;;18.20;;
9438;SDS011;5176;42.622;25.386;2022-11-13T02:37:37;28.63;;;20.77;;
9438;SDS011;5176;42.622;25.386;2022-11-13T02:40:07;26.73;;;20.67;;
9438;SDS011;5176;42.622;25.386;2022-11-13T02:42:34;24.90;;;19.97;;
9438;SDS011;5176;42.622;25.386;2022-11-13T02:45:02;19.10;;;16.50;;
9438;SDS011;5176;42.622;25.386;2022-11-13T02:47:29;19.87;;;16.40;;
9438;SDS011;5176;42.622;25.386;2022-11-13T02:49:57;19.20;;;15.50;;
9438;SDS011;5176;42.622;25.386;2022-11-13T02:52:24;19.10;;;15.80;;
9438;SDS011;5176;42.622;25.386;2022-11-13T02:54:51;17.57;;;15.17;;
9438;SDS011;5176;42.622;25.386;2022-11-13T02:57:20;16.60;;;14.00;;
9438;SDS011;5176;42.622;25.386;2022-11-13T02:59:47;16.77;;;14.37;;
9438;SDS011;5176;42.622;25.386;2022-11-13T03:02:14;16.13;;;13.40;;
9438;SDS011;5176;42.622;25.386;2022-11-13T03:04:41;14.73;;;11.80;;
9438;SDS011;5176;42.622;25.386;2022-11-13T03:07:09;15.93;;;13.30;;
9438;SDS011;5176;42.622;25.386;2022-11-13T03:09:36;17.43;;;13.23;;
9438;SDS011;5176;42.622;25.386;2022-11-13T03:12:03;14.73;;;12.37;;
9438;SDS011;5176;42.622;25.386;2022-11-13T03:14:32;15.03;;;13.33;;
9438;SDS011;5176;42.622;25.386;2022-11-13T03:16:59;16.50;;;13.10;;
9438;SDS011;5176;42.622;25.386;2022-11-13T03:19:26;14.83;;;13.23;;
9438;SDS011;5176;42.622;25.386;2022-11-13T03:21:53;17.00;;;12.83;;
9438;SDS011;5176;42.622;25.386;2022-11-13T03:24:21;14.63;;;12.10;;
9438;SDS011;5176;42.622;25.386;2022-11-13T03:26:48;17.90;;;14.27;;
9438;SDS011;5176;42.622;25.386;2022-11-13T03:29:15;18.40;;;13.27;;
9438;SDS011;5176;42.622;25.386;2022-11-13T03:31:44;15.10;;;13.50;;
9438;SDS011;5176;42.622;25.386;2022-11-13T03:34:11;25.20;;;15.00;;
9438;SDS011;5176;42.622;25.386;2022-11-13T03:36:38;17.47;;;14.50;;
9438;SDS011;5176;42.622;25.386;2022-11-13T03:39:05;16.57;;;14.07;;
9438;SDS011;5176;42.622;25.386;2022-11-13T03:41:32;18.43;;;14.37;;
9438;SDS011;5176;42.622;25.386;2022-11-13T03:43:59;16.63;;;13.67;;
9438;SDS011;5176;42.622;25.386;2022-11-13T03:46:26;16.70;;;14.57;;
9438;SDS011;5176;42.622;25.386;2022-11-13T03:48:55;39.23;;;32.57;;
9438;SDS011;5176;42.622;25.386;2022-11-13T03:51:22;26.57;;;23.03;;
9438;SDS011;5176;42.622;25.386;2022-11-13T03:53:49;18.03;;;15.37;;
9438;SDS011;5176;42.622;25.386;2022-11-13T03:56:16;20.63;;;17.07;;
9438;SDS011;5176;42.622;25.386;2022-11-13T03:58:43;23.67;;;20.33;;
9438;SDS011;5176;42.622;25.386;2022-11-13T04:01:10;17.00;;;13.73;;
9438;SDS011;5176;42.622;25.386;2022-11-13T04:03:37;16.90;;;14.07;;
9438;SDS011;5176;42.622;25.386;2022-11-13T04:06:06;15.97;;;14.20;;
9438;SDS011;5176;42.622;25.386;2022-11-13T04:08:33;18.20;;;15.53;;
9438;SDS011;5176;42.622;25.386;2022-11-13T04:11:04;35.80;;;28.43;;
9438;SDS011;5176;42.622;25.386;2022-11-13T04:13:32;18.10;;;13.93;;
9438;SDS011;5176;42.622;25.386;2022-11-13T04:15:59;18.57;;;14.57;;
9438;SDS011;5176;42.622;25.386;2022-11-13T04:18:26;17.53;;;13.97;;
9438;SDS011;5176;42.622;25.386;2022-11-13T04:20:57;16.67;;;14.87;;
9438;SDS011;5176;42.622;25.386;2022-11-13T04:23:26;18.30;;;14.93;;
9438;SDS011;5176;42.622;25.386;2022-11-13T04:25:53;19.37;;;15.07;;
9438;SDS011;5176;42.622;25.386;2022-11-13T04:28:21;17.23;;;14.50;;
9438;SDS011;5176;42.622;25.386;2022-11-13T04:30:48;17.67;;;15.47;;
9438;SDS011;5176;42.622;25.386;2022-11-13T04:33:18;20.33;;;16.03;;
9438;SDS011;5176;42.622;25.386;2022-11-13T04:35:45;17.13;;;14.40;;
9438;SDS011;5176;42.622;25.386;2022-11-13T04:38:12;17.57;;;14.73;;
9438;SDS011;5176;42.622;25.386;2022-11-13T04:40:42;15.40;;;13.53;;
9438;SDS011;5176;42.622;25.386;2022-11-13T04:43:09;14.83;;;13.30;;
9438;SDS011;5176;42.622;25.386;2022-11-13T04:45:35;16.87;;;12.83;;
9438;SDS011;5176;42.622;25.386;2022-11-13T04:48:03;13.93;;;12.30;;
9438;SDS011;5176;42.622;25.386;2022-11-13T04:50:30;15.90;;;12.33;;
9438;SDS011;5176;42.622;25.386;2022-11-13T04:52:58;14.13;;;12.23;;
9438;SDS011;5176;42.622;25.386;2022-11-13T04:55:25;13.60;;;11.83;;
9438;SDS011;5176;42.622;25.386;2022-11-13T04:57:53;14.53;;;12.00;;
9438;SDS011;5176;42.622;25.386;2022-11-13T05:00:20;15.73;;;11.73;;
9438;SDS011;5176;42.622;25.386;2022-11-13T05:02:48;16.70;;;11.73;;
9438;SDS011;5176;42.622;25.386;2022-11-13T05:05:15;17.30;;;11.30;;
9438;SDS011;5176;42.622;25.386;2022-11-13T05:07:42;12.80;;;11.40;;
9438;SDS011;5176;42.622;25.386;2022-11-13T05:10:10;14.03;;;11.23;;
9438;SDS011;5176;42.622;25.386;2022-11-13T05:12:37;12.33;;;10.43;;
9438;SDS011;5176;42.622;25.386;2022-11-13T05:15:06;12.73;;;11.20;;
9438;SDS011;5176;42.622;25.386;2022-11-13T05:17:34;14.80;;;10.67;;
9438;SDS011;5176;42.622;25.386;2022-11-13T05:20:01;13.83;;;11.80;;
9438;SDS011;5176;42.622;25.386;2022-11-13T05:22:28;14.10;;;11.97;;
9438;SDS011;5176;42.622;25.386;2022-11-13T05:24:55;13.70;;;11.90;;
9438;SDS011;5176;42.622;25.386;2022-11-13T05:27:22;13.67;;;11.57;;
9438;SDS011;5176;42.622;25.386;2022-11-13T05:29:49;15.17;;;13.63;;
9438;SDS011;5176;42.622;25.386;2022-11-13T05:32:18;14.57;;;12.37;;
9438;SDS011;5176;42.622;25.386;2022-11-13T05:34:45;15.00;;;12.17;;
9438;SDS011;5176;42.622;25.386;2022-11-13T05:37:12;14.33;;;12.33;;
9438;SDS011;5176;42.622;25.386;2022-11-13T05:39:39;14.93;;;13.33;;
9438;SDS011;5176;42.622;25.386;2022-11-13T05:42:06;18.40;;;14.60;;
9438;SDS011;5176;42.622;25.386;2022-11-13T05:44:34;19.03;;;16.20;;
9438;SDS011;5176;42.622;25.386;2022-11-13T05:47:01;17.63;;;14.47;;
9438;SDS011;5176;42.622;25.386;2022-11-13T05:49:30;16.60;;;13.97;;
9438;SDS011;5176;42.622;25.386;2022-11-13T05:51:57;16.13;;;14.43;;
9438;SDS011;5176;42.622;25.386;2022-11-13T05:54:24;15.77;;;13.80;;
9438;SDS011;5176;42.622;25.386;2022-11-13T05:56:51;17.47;;;13.90;;
9438;SDS011;5176;42.622;25.386;2022-11-13T05:59:19;16.03;;;14.00;;
9438;SDS011;5176;42.622;25.386;2022-11-13T06:01:46;14.30;;;11.70;;
9438;SDS011;5176;42.622;25.386;2022-11-13T06:04:13;17.40;;;14.37;;
9438;SDS011;5176;42.622;25.386;2022-11-13T06:06:42;15.47;;;13.87;;
9438;SDS011;5176;42.622;25.386;2022-11-13T06:09:11;18.23;;;16.30;;
9438;SDS011;5176;42.622;25.386;2022-11-13T06:11:41;18.43;;;16.07;;
9438;SDS011;5176;42.622;25.386;2022-11-13T06:14:08;24.03;;;21.40;;
9438;SDS011;5176;42.622;25.386;2022-11-13T06:16:36;19.13;;;17.00;;
9438;SDS011;5176;42.622;25.386;2022-11-13T06:19:04;19.70;;;13.97;;
9438;SDS011;5176;42.622;25.386;2022-11-13T06:21:34;15.63;;;13.33;;
9438;SDS011;5176;42.622;25.386;2022-11-13T06:24:04;15.70;;;12.27;;
9438;SDS011;5176;42.622;25.386;2022-11-13T06:26:32;45.50;;;29.13;;
9438;SDS011;5176;42.622;25.386;2022-11-13T06:29:01;20.40;;;17.83;;
9438;SDS011;5176;42.622;25.386;2022-11-13T06:31:30;18.10;;;15.50;;
9438;SDS011;5176;42.622;25.386;2022-11-13T06:33:58;17.87;;;14.93;;
9438;SDS011;5176;42.622;25.386;2022-11-13T06:36:26;15.73;;;13.90;;
9438;SDS011;5176;42.622;25.386;2022-11-13T06:38:58;15.73;;;12.60;;
9438;SDS011;5176;42.622;25.386;2022-11-13T06:41:28;13.93;;;12.40;;
9438;SDS011;5176;42.622;25.386;2022-11-13T06:43:57;14.97;;;13.20;;
9438;SDS011;5176;42.622;25.386;2022-11-13T06:46:25;15.40;;;13.17;;
9438;SDS011;5176;42.622;25.386;2022-11-13T06:48:53;17.47;;;14.97;;
9438;SDS011;5176;42.622;25.386;2022-11-13T06:51:22;15.97;;;12.33;;
9438;SDS011;5176;42.622;25.386;2022-11-13T06:53:50;12.43;;;10.93;;
9438;SDS011;5176;42.622;25.386;2022-11-13T06:56:18;12.23;;;10.80;;
9438;SDS011;5176;42.622;25.386;2022-11-13T06:58:48;14.60;;;10.00;;
9438;SDS011;5176;42.622;25.386;2022-11-13T07:01:17;11.47;;;8.83;;
9438;SDS011;5176;42.622;25.386;2022-11-13T07:03:45;12.23;;;9.17;;
9438;SDS011;5176;42.622;25.386;2022-11-13T07:06:14;12.03;;;9.53;;
9438;SDS011;5176;42.622;25.386;2022-11-13T07:08:43;11.70;;;10.20;;
9438;SDS011;5176;42.622;25.386;2022-11-13T07:11:11;11.27;;;9.00;;
9438;SDS011;5176;42.622;25.386;2022-11-13T07:13:41;11.27;;;9.73;;
9438;SDS011;5176;42.622;25.386;2022-11-13T07:16:10;9.37;;;7.87;;
9438;SDS011;5176;42.622;25.386;2022-11-13T07:18:39;10.37;;;7.47;;
9438;SDS011;5176;42.622;25.386;2022-11-13T07:21:07;8.53;;;7.63;;
9438;SDS011;5176;42.622;25.386;2022-11-13T07:23:36;12.60;;;7.90;;
9438;SDS011;5176;42.622;25.386;2022-11-13T07:26:07;10.87;;;7.83;;
9438;SDS011;5176;42.622;25.386;2022-11-13T07:28:35;20.57;;;13.93;;
9438;SDS011;5176;42.622;25.386;2022-11-13T07:31:03;24.70;;;14.77;;
9438;SDS011;5176;42.622;25.386;2022-11-13T07:33:33;18.97;;;12.43;;
9438;SDS011;5176;42.622;25.386;2022-11-13T07:36:00;11.97;;;9.97;;
9438;SDS011;5176;42.622;25.386;2022-11-13T07:38:27;11.87;;;9.63;;
9438;SDS011;5176;42.622;25.386;2022-11-13T07:40:56;11.77;;;9.90;;
9438;SDS011;5176;42.622;25.386;2022-11-13T07:43:24;18.63;;;11.23;;
9438;SDS011;5176;42.622;25.386;2022-11-13T07:45:51;14.70;;;11.13;;
9438;SDS011;5176;42.622;25.386;2022-11-13T07:48:20;12.07;;;9.17;;
9438;SDS011;5176;42.622;25.386;2022-11-13T07:50:49;12.27;;;8.63;;
9438;SDS011;5176;42.622;25.386;2022-11-13T07:53:17;10.67;;;8.43;;
9438;SDS011;5176;42.622;25.386;2022-11-13T07:55:46;13.60;;;9.83;;
9438;SDS011;5176;42.622;25.386;2022-11-13T07:58:13;15.37;;;10.10;;
9438;SDS011;5176;42.622;25.386;2022-11-13T08:00:40;11.47;;;10.23;;
9438;SDS011;5176;42.622;25.386;2022-11-13T08:03:10;13.47;;;12.03;;
9438;SDS011;5176;42.622;25.386;2022-11-13T08:05:38;18.47;;;14.17;;
9438;SDS011;5176;42.622;25.386;2022-11-13T08:08:09;21.70;;;16.80;;
9438;SDS011;5176;42.622;25.386;2022-11-13T08:10:38;12.93;;;9.93;;
9438;SDS011;5176;42.622;25.386;2022-11-13T08:13:07;11.73;;;10.47;;
9438;SDS011;5176;42.622;25.386;2022-11-13T08:15:36;15.30;;;10.67;;
9438;SDS011;5176;42.622;25.386;2022-11-13T08:18:04;13.40;;;9.60;;
9438;SDS011;5176;42.622;25.386;2022-11-13T08:20:32;11.23;;;10.07;;
9438;SDS011;5176;42.622;25.386;2022-11-13T08:23:00;13.70;;;11.70;;
9438;SDS011;5176;42.622;25.386;2022-11-13T08:25:31;14.30;;;11.93;;
9438;SDS011;5176;42.622;25.386;2022-11-13T08:27:59;13.27;;;10.87;;
9438;SDS011;5176;42.622;25.386;2022-11-13T08:30:26;13.00;;;10.73;;
9438;SDS011;5176;42.622;25.386;2022-11-13T08:32:54;13.70;;;11.30;;
9438;SDS011;5176;42.622;25.386;2022-11-13T08:35:22;15.97;;;12.50;;
9438;SDS011;5176;42.622;25.386;2022-11-13T08:37:49;14.30;;;12.80;;
9438;SDS011;5176;42.622;25.386;2022-11-13T08:40:17;15.70;;;13.50;;
9438;SDS011;5176;42.622;25.386;2022-11-13T08:42:46;15.27;;;12.50;;
9438;SDS011;5176;42.622;25.386;2022-11-13T08:45:13;15.90;;;14.17;;
9438;SDS011;5176;42.622;25.386;2022-11-13T08:47:40;17.67;;;12.80;;
9438;SDS011;5176;42.622;25.386;2022-11-13T08:50:08;14.27;;;11.30;;
9438;SDS011;5176;42.622;25.386;2022-11-13T08:52:35;13.50;;;10.90;;
9438;SDS011;5176;42.622;25.386;2022-11-13T08:55:03;10.83;;;9.43;;
9438;SDS011;5176;42.622;25.386;2022-11-13T08:57:30;10.83;;;8.90;;
9438;SDS011;5176;42.622;25.386;2022-11-13T08:59:59;12.13;;;10.43;;
9438;SDS011;5176;42.622;25.386;2022-11-13T09:02:27;12.13;;;9.87;;
9438;SDS011;5176;42.622;25.386;2022-11-13T09:04:54;13.30;;;10.47;;
9438;SDS011;5176;42.622;25.386;2022-11-13T09:07:21;12.47;;;9.50;;
9438;SDS011;5176;42.622;25.386;2022-11-13T09:09:48;9.13;;;8.23;;
9438;SDS011;5176;42.622;25.386;2022-11-13T09:12:16;9.20;;;7.70;;
9438;SDS011;5176;42.622;25.386;2022-11-13T09:14:43;9.50;;;8.23;;
9438;SDS011;5176;42.622;25.386;2022-11-13T09:17:12;11.67;;;8.43;;
9438;SDS011;5176;42.622;25.386;2022-11-13T09:19:39;10.90;;;9.80;;
9438;SDS011;5176;42.622;25.386;2022-11-13T09:22:06;12.83;;;9.77;;
9438;SDS011;5176;42.622;25.386;2022-11-13T09:24:34;11.23;;;9.80;;
9438;SDS011;5176;42.622;25.386;2022-11-13T09:27:01;11.80;;;10.60;;
9438;SDS011;5176;42.622;25.386;2022-11-13T09:29:28;12.80;;;10.57;;
9438;SDS011;5176;42.622;25.386;2022-11-13T09:31:56;11.93;;;10.07;;
9438;SDS011;5176;42.622;25.386;2022-11-13T09:34:25;13.07;;;10.00;;
9438;SDS011;5176;42.622;25.386;2022-11-13T09:36:53;9.97;;;8.57;;
9438;SDS011;5176;42.622;25.386;2022-11-13T09:39:20;9.03;;;8.10;;
9438;SDS011;5176;42.622;25.386;2022-11-13T09:41:49;9.37;;;8.20;;
9438;SDS011;5176;42.622;25.386;2022-11-13T09:44:23;8.20;;;7.40;;
9438;SDS011;5176;42.622;25.386;2022-11-13T09:47:00;10.40;;;9.13;;
9438;SDS011;5176;42.622;25.386;2022-11-13T09:49:35;10.30;;;9.00;;
9438;SDS011;5176;42.622;25.386;2022-11-13T09:52:09;17.43;;;12.37;;
9438;SDS011;5176;42.622;25.386;2022-11-13T09:54:40;11.20;;;9.90;;
9438;SDS011;5176;42.622;25.386;2022-11-13T09:57:10;11.40;;;9.50;;
9438;SDS011;5176;42.622;25.386;2022-11-13T09:59:50;12.40;;;9.80;;
9438;SDS011;5176;42.622;25.386;2022-11-13T10:02:23;10.27;;;9.23;;
9438;SDS011;5176;42.622;25.386;2022-11-13T10:05:01;8.97;;;7.03;;
9438;SDS011;5176;42.622;25.386;2022-11-13T10:07:39;10.13;;;7.90;;
9438;SDS011;5176;42.622;25.386;2022-11-13T10:10:16;11.67;;;8.93;;
9438;SDS011;5176;42.622;25.386;2022-11-13T10:12:57;9.53;;;7.63;;
9438;SDS011;5176;42.622;25.386;2022-11-13T10:15:26;9.90;;;7.10;;
9438;SDS011;5176;42.622;25.386;2022-11-13T10:17:55;7.03;;;6.33;;
9438;SDS011;5176;42.622;25.386;2022-11-13T10:20:33;8.43;;;6.63;;
9438;SDS011;5176;42.622;25.386;2022-11-13T10:23:07;6.83;;;6.00;;
9438;SDS011;5176;42.622;25.386;2022-11-13T10:25:38;8.10;;;6.67;;
9438;SDS011;5176;42.622;25.386;2022-11-13T10:28:11;11.00;;;7.23;;
9438;SDS011;5176;42.622;25.386;2022-11-13T10:34:01;7.80;;;7.00;;
9438;SDS011;5176;42.622;25.386;2022-11-13T10:36:31;11.17;;;8.40;;
9438;SDS011;5176;42.622;25.386;2022-11-13T10:39:04;15.60;;;11.67;;
9438;SDS011;5176;42.622;25.386;2022-11-13T10:41:43;8.33;;;7.43;;
9438;SDS011;5176;42.622;25.386;2022-11-13T10:47:05;7.30;;;6.60;;
9438;SDS011;5176;42.622;25.386;2022-11-13T10:49:40;7.03;;;6.33;;
9438;SDS011;5176;42.622;25.386;2022-11-13T10:52:15;7.63;;;6.80;;
9438;SDS011;5176;42.622;25.386;2022-11-13T10:54:44;7.70;;;5.73;;
9438;SDS011;5176;42.622;25.386;2022-11-13T10:57:19;6.77;;;6.17;;
9438;SDS011;5176;42.622;25.386;2022-11-13T10:59:50;7.25;;;6.55;;
9438;SDS011;5176;42.622;25.386;2022-11-13T11:02:18;8.02;;;6.47;;
9438;SDS011;5176;42.622;25.386;2022-11-13T11:04:47;8.90;;;6.93;;
9438;SDS011;5176;42.622;25.386;2022-11-13T11:07:16;7.95;;;6.63;;
9438;SDS011;5176;42.622;25.386;2022-11-13T11:09:46;9.43;;;6.63;;
9438;SDS011;5176;42.622;25.386;2022-11-13T11:12:15;8.93;;;6.90;;
9438;SDS011;5176;42.622;25.386;2022-11-13T11:14:56;8.25;;;6.85;;
9438;SDS011;5176;42.622;25.386;2022-11-13T11:17:31;8.88;;;7.47;;
9438;SDS011;5176;42.622;25.386;2022-11-13T11:20:04;7.55;;;6.78;;
9438;SDS011;5176;42.622;25.386;2022-11-13T11:22:35;10.88;;;7.97;;
9438;SDS011;5176;42.622;25.386;2022-11-13T11:25:08;9.45;;;7.97;;
9438;SDS011;5176;42.622;25.386;2022-11-13T11:27:40;8.50;;;7.72;;
9438;SDS011;5176;42.622;25.386;2022-11-13T11:30:14;8.60;;;7.75;;
9438;SDS011;5176;42.622;25.386;2022-11-13T11:32:47;7.85;;;6.68;;
9438;SDS011;5176;42.622;25.386;2022-11-13T11:35:20;9.45;;;8.48;;
9438;SDS011;5176;42.622;25.386;2022-11-13T11:37:53;7.72;;;7.00;;
9438;SDS011;5176;42.622;25.386;2022-11-13T11:40:26;8.25;;;7.45;;
9438;SDS011;5176;42.622;25.386;2022-11-13T11:43:00;8.05;;;7.22;;
9438;SDS011;5176;42.622;25.386;2022-11-13T11:45:31;8.40;;;7.47;;
9438;SDS011;5176;42.622;25.386;2022-11-13T11:48:02;7.25;;;6.60;;
9438;SDS011;5176;42.622;25.386;2022-11-13T11:50:36;7.30;;;6.70;;
9438;SDS011;5176;42.622;25.386;2022-11-13T11:53:11;8.93;;;7.32;;
9438;SDS011;5176;42.622;25.386;2022-11-13T11:58:48;8.50;;;6.95;;
9438;SDS011;5176;42.622;25.386;2022-11-13T12:01:32;7.80;;;7.10;;
9438;SDS011;5176;42.622;25.386;2022-11-13T12:04:12;7.38;;;6.43;;
9438;SDS011;5176;42.622;25.386;2022-11-13T12:06:50;7.60;;;6.90;;
9438;SDS011;5176;42.622;25.386;2022-11-13T12:09:27;7.28;;;6.65;;
9438;SDS011;5176;42.622;25.386;2022-11-13T12:11:59;7.65;;;6.95;;
9438;SDS011;5176;42.622;25.386;2022-11-13T12:14:38;7.05;;;6.45;;
9438;SDS011;5176;42.622;25.386;2022-11-13T12:17:22;7.53;;;6.65;;
9438;SDS011;5176;42.622;25.386;2022-11-13T12:20:06;8.75;;;7.85;;
9438;SDS011;5176;42.622;25.386;2022-11-13T12:22:46;8.00;;;6.72;;
9438;SDS011;5176;42.622;25.386;2022-11-13T12:25:20;8.63;;;6.80;;
9438;SDS011;5176;42.622;25.386;2022-11-13T12:27:55;8.43;;;7.63;;
9438;SDS011;5176;42.622;25.386;2022-11-13T12:30:31;8.07;;;7.28;;
9438;SDS011;5176;42.622;25.386;2022-11-13T12:33:11;6.90;;;6.30;;
9438;SDS011;5176;42.622;25.386;2022-11-13T12:35:49;7.32;;;6.63;;
9438;SDS011;5176;42.622;25.386;2022-11-13T12:38:26;7.38;;;6.68;;
9438;SDS011;5176;42.622;25.386;2022-11-13T12:41:04;7.55;;;6.70;;
9438;SDS011;5176;42.622;25.386;2022-11-13T12:43:46;43.22;;;18.58;;
9438;SDS011;5176;42.622;25.386;2022-11-13T12:46:21;7.18;;;6.45;;
9438;SDS011;5176;42.622;25.386;2022-11-13T12:49:00;6.88;;;6.18;;
9438;SDS011;5176;42.622;25.386;2022-11-13T12:51:39;8.93;;;6.75;;
9438;SDS011;5176;42.622;25.386;2022-11-13T12:54:08;7.95;;;7.15;;
9438;SDS011;5176;42.622;25.386;2022-11-13T12:56:40;8.70;;;7.07;;
9438;SDS011;5176;42.622;25.386;2022-11-13T12:59:12;8.05;;;7.25;;
9438;SDS011;5176;42.622;25.386;2022-11-13T13:02:00;9.88;;;6.97;;
9438;SDS011;5176;42.622;25.386;2022-11-13T13:04:44;10.15;;;9.15;;
9438;SDS011;5176;42.622;25.386;2022-11-13T13:07:25;8.45;;;7.28;;
9438;SDS011;5176;42.622;25.386;2022-11-13T13:10:10;9.40;;;8.30;;
9438;SDS011;5176;42.622;25.386;2022-11-13T13:12:46;7.88;;;7.07;;
9438;SDS011;5176;42.622;25.386;2022-11-13T13:15:28;9.40;;;8.00;;
9438;SDS011;5176;42.622;25.386;2022-11-13T13:18:02;10.82;;;9.57;;
9438;SDS011;5176;42.622;25.386;2022-11-13T13:20:33;10.23;;;9.13;;
9438;SDS011;5176;42.622;25.386;2022-11-13T13:23:02;11.57;;;8.38;;
9438;SDS011;5176;42.622;25.386;2022-11-13T13:25:30;9.95;;;8.23;;
9438;SDS011;5176;42.622;25.386;2022-11-13T13:28:01;8.45;;;7.65;;
9438;SDS011;5176;42.622;25.386;2022-11-13T13:30:32;7.88;;;7.18;;
9438;SDS011;5176;42.622;25.386;2022-11-13T13:33:15;11.82;;;10.20;;
9438;SDS011;5176;42.622;25.386;2022-11-13T13:35:50;7.90;;;7.13;;
9438;SDS011;5176;42.622;25.386;2022-11-13T13:38:28;10.75;;;6.72;;
9438;SDS011;5176;42.622;25.386;2022-11-13T13:41:07;7.85;;;7.05;;
9438;SDS011;5176;42.622;25.386;2022-11-13T13:43:48;9.38;;;7.78;;
9438;SDS011;5176;42.622;25.386;2022-11-13T13:46:23;8.07;;;7.32;;
9438;SDS011;5176;42.622;25.386;2022-11-13T13:48:55;10.75;;;7.82;;
9438;SDS011;5176;42.622;25.386;2022-11-13T13:51:29;8.95;;;8.07;;
9438;SDS011;5176;42.622;25.386;2022-11-13T13:54:00;9.88;;;8.43;;
9438;SDS011;5176;42.622;25.386;2022-11-13T13:56:32;11.68;;;8.93;;
9438;SDS011;5176;42.622;25.386;2022-11-13T13:59:11;10.93;;;9.82;;
9438;SDS011;5176;42.622;25.386;2022-11-13T14:01:51;12.57;;;9.52;;
9438;SDS011;5176;42.622;25.386;2022-11-13T14:04:20;7.95;;;7.18;;
9438;SDS011;5176;42.622;25.386;2022-11-13T14:06:49;7.65;;;6.95;;
9438;SDS011;5176;42.622;25.386;2022-11-13T14:09:19;7.45;;;6.72;;
9438;SDS011;5176;42.622;25.386;2022-11-13T14:11:54;12.20;;;8.00;;
9438;SDS011;5176;42.622;25.386;2022-11-13T14:14:25;8.93;;;7.43;;
9438;SDS011;5176;42.622;25.386;2022-11-13T14:16:52;9.02;;;7.15;;
9438;SDS011;5176;42.622;25.386;2022-11-13T14:19:20;9.57;;;7.25;;
9438;SDS011;5176;42.622;25.386;2022-11-13T14:21:48;10.00;;;7.43;;
9438;SDS011;5176;42.622;25.386;2022-11-13T14:24:20;8.48;;;7.63;;
9438;SDS011;5176;42.622;25.386;2022-11-13T14:26:50;8.82;;;7.85;;
9438;SDS011;5176;42.622;25.386;2022-11-13T14:29:28;11.55;;;9.52;;
9438;SDS011;5176;42.622;25.386;2022-11-13T14:32:03;14.48;;;11.75;;
9438;SDS011;5176;42.622;25.386;2022-11-13T14:34:35;13.05;;;11.50;;
9438;SDS011;5176;42.622;25.386;2022-11-13T14:39:50;14.35;;;11.27;;
9438;SDS011;5176;42.622;25.386;2022-11-13T14:42:19;13.98;;;11.80;;
9438;SDS011;5176;42.622;25.386;2022-11-13T14:44:54;15.32;;;12.30;;
9438;SDS011;5176;42.622;25.386;2022-11-13T14:47:31;16.45;;;12.23;;
9438;SDS011;5176;42.622;25.386;2022-11-13T14:50:07;21.77;;;15.32;;
9438;SDS011;5176;42.622;25.386;2022-11-13T14:52:53;17.05;;;15.20;;
9438;SDS011;5176;42.622;25.386;2022-11-13T14:55:22;17.67;;;15.18;;
9438;SDS011;5176;42.622;25.386;2022-11-13T14:57:51;20.00;;;16.20;;
9438;SDS011;5176;42.622;25.386;2022-11-13T15:00:25;18.23;;;15.52;;
9438;SDS011;5176;42.622;25.386;2022-11-13T15:02:55;20.55;;;17.35;;
9438;SDS011;5176;42.622;25.386;2022-11-13T15:05:23;20.33;;;15.87;;
9438;SDS011;5176;42.622;25.386;2022-11-13T15:07:50;22.95;;;17.42;;
9438;SDS011;5176;42.622;25.386;2022-11-13T15:10:20;20.23;;;17.35;;
9438;SDS011;5176;42.622;25.386;2022-11-13T15:12:49;26.63;;;21.58;;